Hastings, Nebraska
Current Conditions -  °F | °C
As of 10:53 PM on Monday 22 Dec 2014 (Local Time) from KHSI Reporting Station
Broken Clouds Broken Clouds  
Wind Chill: -4°   Ceiling: 2200
Heat Index:   Visibility: 10mi
Dew Point: -3°   Wind: 18mph
Humidity: 72%   Direction: 320°NW
Pressure: 29.55"   Gusts: NA
Location:  40.59°N, 98.39°W
Report Text: KHSI 230453Z AUTO 32016KT 10SM BKN022 BKN027 02/M03 A2955 RMK AO2 SNB19E28 SLP015 P0000 T00171028
Loading
Personal Weather Stations






























Interactive Weather Map New forecast layout! Learn more

10-Day Weather Forecast

Advertisements
Track Severe Weather on mobile